SAA442 FACT-FABL
Flight info
| Callsign | SAA442 |
|---|---|
| Flight time | 1h 29m |
| Altitude | 37000 |
| Route | TETAN UZ39 BLV |
| Aircraft | A320/M-SDE3FGHIRWY/LB1 |
Departure
| Time | 2026-05-04 22:06 |
|---|---|
| Airport | Cape Town International Airport (FACT) |
Arrival
| Time | 2026-05-04 23:35 |
|---|---|
| Airport | Bram Fischer International Airport (FABL) |
| Time | Latitude | Longitude | Altitude | Speed | Heading |
|---|---|---|---|---|---|
| 2026-05-04 21:45 | -33.96831 | 18.59765 | 165 ft | 0 kts | 256° |
| 2026-05-04 21:54 | -33.96830 | 18.59770 | 164 ft | 0 kts | 256° |
| 2026-05-04 21:57 | -33.96827 | 18.59785 | 165 ft | 3 kts | 256° |
| 2026-05-04 21:57 | -33.96822 | 18.59810 | 165 ft | 3 kts | 256° |
| 2026-05-04 21:57 | -33.96818 | 18.59828 | 164 ft | 0 kts | 256° |
| 2026-05-04 21:59 | -33.96821 | 18.59822 | 164 ft | 1 kts | 235° |
| 2026-05-04 22:00 | -33.96826 | 18.59825 | 164 ft | 1 kts | 174° |
| 2026-05-04 22:00 | -33.96845 | 18.59842 | 164 ft | 9 kts | 146° |
| 2026-05-04 22:00 | -33.96908 | 18.59891 | 164 ft | 13 kts | 150° |
| 2026-05-04 22:00 | -33.96999 | 18.59933 | 164 ft | 15 kts | 160° |
| 2026-05-04 22:01 | -33.97103 | 18.59977 | 164 ft | 17 kts | 160° |
| 2026-05-04 22:01 | -33.97199 | 18.60002 | 164 ft | 12 kts | 169° |
| 2026-05-04 22:01 | -33.97290 | 18.60021 | 164 ft | 14 kts | 169° |
| 2026-05-04 22:01 | -33.97363 | 18.60039 | 164 ft | 8 kts | 166° |
| 2026-05-04 22:02 | -33.97423 | 18.60061 | 164 ft | 10 kts | 161° |
| 2026-05-04 22:02 | -33.97495 | 18.60091 | 164 ft | 12 kts | 161° |
| 2026-05-04 22:02 | -33.97577 | 18.60129 | 164 ft | 13 kts | 156° |
| 2026-05-04 22:02 | -33.97670 | 18.60172 | 164 ft | 15 kts | 160° |
| 2026-05-04 22:03 | -33.97775 | 18.60219 | 164 ft | 17 kts | 160° |
| 2026-05-04 22:03 | -33.97892 | 18.60271 | 164 ft | 19 kts | 160° |
| 2026-05-04 22:03 | -33.98023 | 18.60322 | 164 ft | 21 kts | 161° |
| 2026-05-04 22:03 | -33.98165 | 18.60384 | 164 ft | 23 kts | 160° |
| 2026-05-04 22:04 | -33.98320 | 18.60452 | 164 ft | 25 kts | 159° |
| 2026-05-04 22:04 | -33.98488 | 18.60528 | 164 ft | 27 kts | 159° |
| 2026-05-04 22:04 | -33.98667 | 18.60612 | 163 ft | 29 kts | 159° |
| 2026-05-04 22:04 | -33.98785 | 18.60659 | 163 ft | 11 kts | 143° |
| 2026-05-04 22:05 | -33.98784 | 18.60767 | 157 ft | 17 kts | 73° |
| 2026-05-04 22:05 | -33.98725 | 18.60861 | 156 ft | 21 kts | 15° |
| 2026-05-04 22:05 | -33.98423 | 18.60775 | 154 ft | 76 kts | 346° |
| 2026-05-04 22:05 | -33.97723 | 18.60560 | 154 ft | 129 kts | 346° |
| 2026-05-04 22:06 | -33.96716 | 18.60269 | 232 ft | 160 kts | 350° |
| 2026-05-04 22:06 | -33.95625 | 18.59953 | 721 ft | 162 kts | 345° |
| 2026-05-04 22:06 | -33.94565 | 18.59557 | 1280 ft | 156 kts | 340° |
| 2026-05-04 22:06 | -33.93540 | 18.59146 | 1821 ft | 154 kts | 341° |
| 2026-05-04 22:07 | -33.92506 | 18.58765 | 2101 ft | 150 kts | 341° |
| 2026-05-04 22:07 | -33.91565 | 18.58258 | 2229 ft | 156 kts | 320° |
| 2026-05-04 22:07 | -33.90842 | 18.57220 | 2372 ft | 175 kts | 303° |
| 2026-05-04 22:07 | -33.90126 | 18.55903 | 2573 ft | 201 kts | 303° |
| 2026-05-04 22:08 | -33.89123 | 18.54668 | 3118 ft | 214 kts | 324° |
| 2026-05-04 22:08 | -33.87833 | 18.53675 | 3711 ft | 227 kts | 326° |
| 2026-05-04 22:08 | -33.86456 | 18.52630 | 4316 ft | 241 kts | 326° |
| 2026-05-04 22:08 | -33.85472 | 18.51891 | 4721 ft | 252 kts | 328° |
| 2026-05-04 22:09 | -33.83796 | 18.51077 | 5318 ft | 269 kts | 345° |
| 2026-05-04 22:09 | -33.81899 | 18.50911 | 5915 ft | 287 kts | 3° |
| 2026-05-04 22:09 | -33.79916 | 18.51539 | 6510 ft | 304 kts | 23° |
| 2026-05-04 22:09 | -33.78076 | 18.52903 | 7086 ft | 318 kts | 32° |
| 2026-05-04 22:10 | -33.76210 | 18.54420 | 7668 ft | 328 kts | 32° |
| 2026-05-04 22:10 | -33.74295 | 18.55978 | 8254 ft | 338 kts | 32° |
| 2026-05-04 22:10 | -33.72322 | 18.57578 | 8858 ft | 347 kts | 32° |
| 2026-05-04 22:10 | -33.70292 | 18.59216 | 9302 ft | 361 kts | 31° |
| 2026-05-04 22:11 | -33.68142 | 18.60947 | 9291 ft | 372 kts | 32° |
| 2026-05-04 22:11 | -33.66061 | 18.62632 | 9342 ft | 350 kts | 32° |
| 2026-05-04 22:11 | -33.64112 | 18.64218 | 10086 ft | 330 kts | 32° |
| 2026-05-04 22:11 | -33.62185 | 18.65780 | 10711 ft | 339 kts | 31° |
| 2026-05-04 22:12 | -33.60209 | 18.67368 | 11360 ft | 344 kts | 31° |
| 2026-05-04 22:12 | -33.58192 | 18.68945 | 12060 ft | 347 kts | 27° |
| 2026-05-04 22:12 | -33.55986 | 18.70109 | 12759 ft | 347 kts | 14° |
| 2026-05-04 22:12 | -33.53624 | 18.70685 | 13449 ft | 348 kts | 3° |
| 2026-05-04 22:13 | -33.51199 | 18.70972 | 14113 ft | 352 kts | 3° |
| 2026-05-04 22:13 | -33.48752 | 18.71271 | 14743 ft | 355 kts | 3° |
| 2026-05-04 22:13 | -33.46279 | 18.71583 | 15373 ft | 358 kts | 3° |
| 2026-05-04 22:13 | -33.43787 | 18.71901 | 16008 ft | 361 kts | 3° |
| 2026-05-04 22:14 | -33.41277 | 18.72221 | 16624 ft | 364 kts | 2° |
| 2026-05-04 22:14 | -33.38741 | 18.72543 | 17234 ft | 367 kts | 2° |
| 2026-05-04 22:14 | -33.36190 | 18.72861 | 17849 ft | 370 kts | 2° |
| 2026-05-04 22:14 | -33.33614 | 18.73180 | 18444 ft | 374 kts | 2° |
| 2026-05-04 22:15 | -33.31021 | 18.73532 | 19016 ft | 377 kts | 6° |
| 2026-05-04 22:15 | -33.28509 | 18.74533 | 19621 ft | 387 kts | 24° |
| 2026-05-04 22:15 | -33.26325 | 18.76473 | 20264 ft | 399 kts | 42° |
| 2026-05-04 22:15 | -33.24754 | 18.79192 | 20876 ft | 411 kts | 61° |
| 2026-05-04 22:16 | -33.23992 | 18.82524 | 21479 ft | 424 kts | 81° |
| 2026-05-04 22:16 | -33.24219 | 18.86068 | 22031 ft | 436 kts | 103° |
| 2026-05-04 22:16 | -33.25487 | 18.89378 | 22539 ft | 444 kts | 125° |
| 2026-05-04 22:16 | -33.27525 | 18.92168 | 23070 ft | 448 kts | 133° |
| 2026-05-04 22:17 | -33.29673 | 18.94882 | 23578 ft | 452 kts | 133° |
| 2026-05-04 22:17 | -33.31853 | 18.97618 | 23996 ft | 456 kts | 134° |
| 2026-05-04 22:17 | -33.34054 | 19.00377 | 24438 ft | 460 kts | 133° |
| 2026-05-04 22:17 | -33.36263 | 19.03160 | 24879 ft | 463 kts | 133° |
| 2026-05-04 22:18 | -33.38386 | 19.06068 | 25301 ft | 465 kts | 123° |
| 2026-05-04 22:18 | -33.39897 | 19.09476 | 25726 ft | 464 kts | 107° |
| 2026-05-04 22:18 | -33.40609 | 19.13209 | 26123 ft | 459 kts | 90° |
| 2026-05-04 22:18 | -33.40501 | 19.16986 | 26497 ft | 453 kts | 76° |
| 2026-05-04 22:19 | -33.40079 | 19.20744 | 26899 ft | 457 kts | 76° |
| 2026-05-04 22:19 | -33.39649 | 19.24526 | 27317 ft | 460 kts | 76° |
| 2026-05-04 22:19 | -33.39219 | 19.28328 | 27744 ft | 463 kts | 76° |
| 2026-05-04 22:19 | -33.38793 | 19.32159 | 28160 ft | 466 kts | 76° |
| 2026-05-04 22:20 | -33.38366 | 19.36015 | 28561 ft | 469 kts | 76° |
| 2026-05-04 22:20 | -33.37937 | 19.39896 | 28946 ft | 472 kts | 76° |
| 2026-05-04 22:20 | -33.37500 | 19.43811 | 29330 ft | 475 kts | 76° |
| 2026-05-04 22:20 | -33.37055 | 19.47740 | 29670 ft | 478 kts | 75° |
| 2026-05-04 22:21 | -33.36604 | 19.51699 | 30037 ft | 482 kts | 75° |
| 2026-05-04 22:21 | -33.36158 | 19.55670 | 30459 ft | 482 kts | 75° |
| 2026-05-04 22:21 | -33.35714 | 19.59644 | 30875 ft | 482 kts | 75° |
| 2026-05-04 22:21 | -33.35271 | 19.63619 | 31311 ft | 482 kts | 75° |
| 2026-05-04 22:22 | -33.34825 | 19.67583 | 31755 ft | 482 kts | 75° |
| 2026-05-04 22:22 | -33.34373 | 19.71556 | 32149 ft | 481 kts | 75° |
| 2026-05-04 22:22 | -33.33918 | 19.75519 | 32482 ft | 482 kts | 75° |
| 2026-05-04 22:22 | -33.33467 | 19.79434 | 32884 ft | 481 kts | 75° |
| 2026-05-04 22:23 | -33.33008 | 19.83400 | 33250 ft | 481 kts | 74° |
| 2026-05-04 22:23 | -33.32549 | 19.87356 | 33672 ft | 481 kts | 74° |
| 2026-05-04 22:23 | -33.32088 | 19.91312 | 34078 ft | 481 kts | 74° |
| 2026-05-04 22:23 | -33.31626 | 19.95266 | 34407 ft | 481 kts | 74° |
| 2026-05-04 22:24 | -33.31165 | 19.99234 | 34744 ft | 481 kts | 74° |
| 2026-05-04 22:24 | -33.30705 | 20.03192 | 35052 ft | 481 kts | 74° |
| 2026-05-04 22:24 | -33.30244 | 20.07157 | 35358 ft | 482 kts | 74° |
| 2026-05-04 22:24 | -33.29780 | 20.11124 | 35658 ft | 482 kts | 74° |
| 2026-05-04 22:25 | -33.29312 | 20.15107 | 35914 ft | 483 kts | 73° |
| 2026-05-04 22:25 | -33.28845 | 20.19083 | 36148 ft | 484 kts | 73° |
| 2026-05-04 22:25 | -33.28371 | 20.23072 | 36394 ft | 485 kts | 73° |
| 2026-05-04 22:25 | -33.27895 | 20.27068 | 36655 ft | 486 kts | 73° |
| 2026-05-04 22:26 | -33.27429 | 20.31013 | 36912 ft | 486 kts | 73° |
| 2026-05-04 22:26 | -33.26752 | 20.34932 | 37025 ft | 478 kts | 63° |
| 2026-05-04 22:26 | -33.25556 | 20.38596 | 37043 ft | 470 kts | 53° |
| 2026-05-04 22:27 | -33.21908 | 20.44861 | 37044 ft | 455 kts | 40° |
| 2026-05-04 22:27 | -33.17835 | 20.50657 | 37039 ft | 455 kts | 39° |
| 2026-05-04 22:28 | -33.13767 | 20.56454 | 37036 ft | 455 kts | 39° |
| 2026-05-04 22:28 | -33.09699 | 20.62239 | 37035 ft | 455 kts | 39° |
| 2026-05-04 22:29 | -33.05618 | 20.68013 | 37042 ft | 455 kts | 39° |
| 2026-05-04 22:29 | -33.01534 | 20.73775 | 37045 ft | 455 kts | 39° |
| 2026-05-04 22:30 | -32.97446 | 20.79556 | 37039 ft | 456 kts | 39° |
| 2026-05-04 22:30 | -32.93383 | 20.85289 | 36991 ft | 455 kts | 38° |
| 2026-05-04 22:31 | -32.89284 | 20.91059 | 37021 ft | 457 kts | 38° |
| 2026-05-04 22:31 | -32.85174 | 20.96834 | 37028 ft | 457 kts | 38° |
| 2026-05-04 22:32 | -32.81055 | 21.02599 | 37027 ft | 457 kts | 38° |
| 2026-05-04 22:32 | -32.76943 | 21.08370 | 37032 ft | 457 kts | 38° |
| 2026-05-04 22:33 | -32.72834 | 21.14130 | 36991 ft | 457 kts | 38° |
| 2026-05-04 22:33 | -32.68725 | 21.19887 | 36993 ft | 457 kts | 37° |
| 2026-05-04 22:34 | -32.64598 | 21.25635 | 37006 ft | 457 kts | 37° |
| 2026-05-04 22:34 | -32.60471 | 21.31380 | 36939 ft | 457 kts | 37° |
| 2026-05-04 22:35 | -32.56330 | 21.37129 | 36994 ft | 459 kts | 37° |
| 2026-05-04 22:35 | -32.52210 | 21.42850 | 36998 ft | 459 kts | 37° |
| 2026-05-04 22:36 | -32.48057 | 21.48612 | 37000 ft | 459 kts | 37° |
| 2026-05-04 22:36 | -32.43906 | 21.54361 | 36996 ft | 459 kts | 37° |
| 2026-05-04 22:37 | -32.39750 | 21.60100 | 36998 ft | 459 kts | 37° |
| 2026-05-04 22:37 | -32.35593 | 21.65829 | 36998 ft | 459 kts | 37° |
| 2026-05-04 22:38 | -32.31436 | 21.71553 | 36998 ft | 459 kts | 37° |
| 2026-05-04 22:38 | -32.27280 | 21.77282 | 36998 ft | 459 kts | 37° |
| 2026-05-04 22:39 | -32.23118 | 21.82993 | 36959 ft | 458 kts | 37° |
| 2026-05-04 22:39 | -32.18953 | 21.88698 | 36988 ft | 459 kts | 37° |
| 2026-05-04 22:40 | -32.14786 | 21.94416 | 37003 ft | 459 kts | 37° |
| 2026-05-04 22:40 | -32.10646 | 22.00078 | 37004 ft | 458 kts | 37° |
| 2026-05-04 22:41 | -32.06476 | 22.05765 | 37006 ft | 458 kts | 37° |
| 2026-05-04 22:41 | -32.02308 | 22.11436 | 37005 ft | 458 kts | 37° |
| 2026-05-04 22:42 | -31.98823 | 22.16185 | 36983 ft | 457 kts | 37° |
| 2026-05-04 22:42 | -31.93987 | 22.22767 | 37002 ft | 456 kts | 36° |
| 2026-05-04 22:43 | -31.89835 | 22.28404 | 37004 ft | 456 kts | 36° |
| 2026-05-04 22:43 | -31.85699 | 22.34002 | 37009 ft | 455 kts | 36° |
| 2026-05-04 22:44 | -31.81550 | 22.39623 | 37012 ft | 454 kts | 36° |
| 2026-05-04 22:44 | -31.77399 | 22.45228 | 37010 ft | 454 kts | 36° |
| 2026-05-04 22:45 | -31.73247 | 22.50823 | 36996 ft | 454 kts | 36° |
| 2026-05-04 22:45 | -31.67030 | 22.59194 | 37010 ft | 453 kts | 36° |
| 2026-05-04 22:46 | -31.62887 | 22.64762 | 37010 ft | 452 kts | 36° |
| 2026-05-04 22:46 | -31.58745 | 22.70313 | 36958 ft | 452 kts | 36° |
| 2026-05-04 22:47 | -31.54626 | 22.75828 | 36992 ft | 451 kts | 36° |
| 2026-05-04 22:47 | -31.50495 | 22.81359 | 36987 ft | 450 kts | 35° |
| 2026-05-04 22:48 | -31.46369 | 22.86869 | 37005 ft | 449 kts | 35° |
| 2026-05-04 22:48 | -31.42250 | 22.92364 | 37013 ft | 449 kts | 35° |
| 2026-05-04 22:49 | -31.38131 | 22.97850 | 37008 ft | 448 kts | 35° |
| 2026-05-04 22:49 | -31.34014 | 23.03330 | 37013 ft | 448 kts | 35° |
| 2026-05-04 22:50 | -31.29897 | 23.08803 | 37012 ft | 447 kts | 35° |
| 2026-05-04 22:50 | -31.26475 | 23.13345 | 36962 ft | 447 kts | 35° |
| 2026-05-04 22:51 | -31.21694 | 23.19681 | 36951 ft | 447 kts | 35° |
| 2026-05-04 22:51 | -31.17568 | 23.25125 | 36961 ft | 447 kts | 35° |
| 2026-05-04 22:52 | -31.13478 | 23.30623 | 36974 ft | 450 kts | 36° |
| 2026-05-04 22:52 | -31.09440 | 23.36238 | 36982 ft | 451 kts | 37° |
| 2026-05-04 22:53 | -31.05430 | 23.41813 | 36990 ft | 451 kts | 37° |
| 2026-05-04 22:53 | -31.01378 | 23.47384 | 36954 ft | 450 kts | 36° |
| 2026-05-04 22:54 | -30.97304 | 23.52944 | 36969 ft | 450 kts | 36° |
| 2026-05-04 22:54 | -30.93235 | 23.58514 | 36977 ft | 451 kts | 37° |
| 2026-05-04 22:55 | -30.89170 | 23.64104 | 36937 ft | 451 kts | 37° |
| 2026-05-04 22:55 | -30.85108 | 23.69663 | 36954 ft | 451 kts | 36° |
| 2026-05-04 22:56 | -30.81060 | 23.75170 | 36917 ft | 451 kts | 36° |
| 2026-05-04 22:56 | -30.76986 | 23.80707 | 36953 ft | 450 kts | 36° |
| 2026-05-04 22:57 | -30.72914 | 23.86244 | 36965 ft | 450 kts | 36° |
| 2026-05-04 22:57 | -30.68845 | 23.91767 | 36970 ft | 449 kts | 36° |
| 2026-05-04 22:58 | -30.65461 | 23.96346 | 36973 ft | 449 kts | 36° |
| 2026-05-04 22:58 | -30.61388 | 24.01870 | 36967 ft | 449 kts | 36° |
| 2026-05-04 22:59 | -30.57324 | 24.07385 | 36929 ft | 449 kts | 36° |
| 2026-05-04 22:59 | -30.53252 | 24.12879 | 36911 ft | 449 kts | 36° |
| 2026-05-04 23:00 | -30.49193 | 24.18345 | 36935 ft | 449 kts | 36° |
| 2026-05-04 23:00 | -30.45110 | 24.23844 | 36954 ft | 450 kts | 36° |
| 2026-05-04 23:01 | -30.41030 | 24.29348 | 36962 ft | 450 kts | 36° |
| 2026-05-04 23:01 | -30.36932 | 24.34835 | 36965 ft | 450 kts | 36° |
| 2026-05-04 23:02 | -30.32833 | 24.40321 | 36922 ft | 450 kts | 36° |
| 2026-05-04 23:02 | -30.28768 | 24.45768 | 36950 ft | 450 kts | 36° |
| 2026-05-04 23:03 | -30.24676 | 24.51247 | 36967 ft | 450 kts | 36° |
| 2026-05-04 23:03 | -30.20577 | 24.56725 | 36973 ft | 449 kts | 36° |
| 2026-05-04 23:04 | -30.16474 | 24.62190 | 36956 ft | 449 kts | 36° |
| 2026-05-04 23:04 | -30.12375 | 24.67656 | 36980 ft | 449 kts | 36° |
| 2026-05-04 23:05 | -30.08301 | 24.73072 | 36985 ft | 448 kts | 36° |
| 2026-05-04 23:05 | -30.04221 | 24.78486 | 37001 ft | 446 kts | 36° |
| 2026-05-04 23:06 | -30.00157 | 24.83876 | 37004 ft | 444 kts | 36° |
| 2026-05-04 23:06 | -29.96112 | 24.89244 | 37000 ft | 443 kts | 36° |
| 2026-05-04 23:07 | -29.92066 | 24.94591 | 36998 ft | 442 kts | 36° |
| 2026-05-04 23:07 | -29.88021 | 24.99924 | 36992 ft | 441 kts | 36° |
| 2026-05-04 23:08 | -29.83982 | 25.05256 | 36922 ft | 442 kts | 36° |
| 2026-05-04 23:08 | -29.79929 | 25.10585 | 36951 ft | 447 kts | 36° |
| 2026-05-04 23:09 | -29.75831 | 25.15981 | 36966 ft | 448 kts | 36° |
| 2026-05-04 23:09 | -29.71789 | 25.21487 | 36971 ft | 461 kts | 44° |
| 2026-05-04 23:10 | -29.70191 | 25.24764 | 36980 ft | 473 kts | 50° |
| 2026-05-04 23:10 | -29.68675 | 25.28124 | 36984 ft | 474 kts | 50° |
| 2026-05-04 23:10 | -29.65652 | 25.34865 | 36958 ft | 474 kts | 50° |
| 2026-05-04 23:11 | -29.62618 | 25.41609 | 36967 ft | 475 kts | 50° |
| 2026-05-04 23:11 | -29.59558 | 25.48357 | 36969 ft | 476 kts | 50° |
| 2026-05-04 23:12 | -29.56507 | 25.55068 | 36980 ft | 477 kts | 50° |
| 2026-05-04 23:12 | -29.53435 | 25.61824 | 36987 ft | 477 kts | 50° |
| 2026-05-04 23:13 | -29.50363 | 25.68581 | 36943 ft | 477 kts | 50° |
| 2026-05-04 23:13 | -29.47279 | 25.75339 | 36961 ft | 478 kts | 50° |
| 2026-05-04 23:14 | -29.44184 | 25.82095 | 36974 ft | 478 kts | 50° |
| 2026-05-04 23:14 | -29.41086 | 25.88856 | 36936 ft | 478 kts | 49° |
| 2026-05-04 23:15 | -29.38008 | 25.95577 | 36922 ft | 479 kts | 49° |
| 2026-05-04 23:15 | -29.34897 | 26.02355 | 36936 ft | 481 kts | 49° |
| 2026-05-04 23:16 | -29.31765 | 26.09162 | 36949 ft | 483 kts | 49° |
| 2026-05-04 23:16 | -29.28624 | 26.15978 | 36347 ft | 489 kts | 51° |
| 2026-05-04 23:17 | -29.27301 | 26.19620 | 35947 ft | 498 kts | 60° |
| 2026-05-04 23:17 | -29.26335 | 26.23433 | 35650 ft | 497 kts | 68° |
| 2026-05-04 23:17 | -29.25927 | 26.27381 | 35115 ft | 505 kts | 84° |
| 2026-05-04 23:17 | -29.26466 | 26.31374 | 34480 ft | 513 kts | 107° |
| 2026-05-04 23:18 | -29.28050 | 26.35018 | 33807 ft | 510 kts | 128° |
| 2026-05-04 23:18 | -29.30390 | 26.37995 | 33113 ft | 498 kts | 144° |
| 2026-05-04 23:18 | -29.33179 | 26.40226 | 32552 ft | 480 kts | 159° |
| 2026-05-04 23:18 | -29.36190 | 26.41666 | 31971 ft | 459 kts | 173° |
| 2026-05-04 23:19 | -29.39219 | 26.42282 | 31402 ft | 436 kts | 188° |
| 2026-05-04 23:19 | -29.42162 | 26.42125 | 30825 ft | 413 kts | 201° |
| 2026-05-04 23:19 | -29.44867 | 26.41301 | 30218 ft | 392 kts | 214° |
| 2026-05-04 23:19 | -29.47261 | 26.39959 | 29531 ft | 373 kts | 224° |
| 2026-05-04 23:20 | -29.49297 | 26.38238 | 28855 ft | 355 kts | 234° |
| 2026-05-04 23:20 | -29.50959 | 26.36245 | 28196 ft | 338 kts | 244° |
| 2026-05-04 23:20 | -29.52282 | 26.34078 | 27552 ft | 326 kts | 250° |
| 2026-05-04 23:20 | -29.53402 | 26.31854 | 26932 ft | 317 kts | 253° |
| 2026-05-04 23:21 | -29.54400 | 26.29622 | 26341 ft | 311 kts | 254° |
| 2026-05-04 23:21 | -29.55344 | 26.27403 | 25768 ft | 306 kts | 255° |
| 2026-05-04 23:21 | -29.56267 | 26.25217 | 25225 ft | 302 kts | 255° |
| 2026-05-04 23:21 | -29.57188 | 26.23059 | 24675 ft | 299 kts | 254° |
| 2026-05-04 23:22 | -29.58110 | 26.20928 | 24153 ft | 296 kts | 254° |
| 2026-05-04 23:22 | -29.59015 | 26.18823 | 23649 ft | 290 kts | 257° |
| 2026-05-04 23:22 | -29.59719 | 26.16696 | 23078 ft | 280 kts | 263° |
| 2026-05-04 23:22 | -29.60158 | 26.14583 | 22522 ft | 271 kts | 270° |
| 2026-05-04 23:23 | -29.60347 | 26.12467 | 21966 ft | 262 kts | 276° |
| 2026-05-04 23:23 | -29.60292 | 26.10403 | 21412 ft | 255 kts | 283° |
| 2026-05-04 23:23 | -29.60012 | 26.08416 | 20865 ft | 250 kts | 289° |
| 2026-05-04 23:23 | -29.59527 | 26.06518 | 20332 ft | 245 kts | 294° |
| 2026-05-04 23:24 | -29.58866 | 26.04726 | 19761 ft | 243 kts | 300° |
| 2026-05-04 23:24 | -29.58007 | 26.03009 | 18966 ft | 251 kts | 306° |
| 2026-05-04 23:24 | -29.56945 | 26.01405 | 18358 ft | 252 kts | 311° |
| 2026-05-04 23:24 | -29.55719 | 25.99961 | 17722 ft | 252 kts | 317° |
| 2026-05-04 23:25 | -29.54369 | 25.98722 | 17139 ft | 251 kts | 323° |
| 2026-05-04 23:25 | -29.52886 | 25.97672 | 16570 ft | 250 kts | 329° |
| 2026-05-04 23:25 | -29.51307 | 25.96839 | 16020 ft | 250 kts | 335° |
| 2026-05-04 23:25 | -29.49651 | 25.96236 | 15470 ft | 250 kts | 341° |
| 2026-05-04 23:26 | -29.47934 | 25.95873 | 14890 ft | 252 kts | 348° |
| 2026-05-04 23:26 | -29.46175 | 25.95760 | 14374 ft | 253 kts | 354° |
| 2026-05-04 23:26 | -29.44413 | 25.95897 | 13860 ft | 255 kts | 1° |
| 2026-05-04 23:26 | -29.42667 | 25.96284 | 13311 ft | 256 kts | 7° |
| 2026-05-04 23:27 | -29.40963 | 25.96924 | 12747 ft | 260 kts | 14° |
| 2026-05-04 23:27 | -29.39319 | 25.97826 | 12159 ft | 264 kts | 21° |
| 2026-05-04 23:27 | -29.37771 | 25.98981 | 11618 ft | 268 kts | 28° |
| 2026-05-04 23:27 | -29.36811 | 25.99881 | 11267 ft | 270 kts | 33° |
| 2026-05-04 23:28 | -29.35097 | 26.01986 | 10605 ft | 275 kts | 44° |
| 2026-05-04 23:28 | -29.34010 | 26.03809 | 10103 ft | 278 kts | 51° |
| 2026-05-04 23:28 | -29.33054 | 26.05739 | 9581 ft | 279 kts | 54° |
| 2026-05-04 23:28 | -29.32167 | 26.07712 | 9078 ft | 277 kts | 56° |
| 2026-05-04 23:29 | -29.31316 | 26.09681 | 8596 ft | 274 kts | 57° |
| 2026-05-04 23:29 | -29.30479 | 26.11625 | 8141 ft | 270 kts | 57° |
| 2026-05-04 23:29 | -29.29650 | 26.13537 | 7681 ft | 266 kts | 56° |
| 2026-05-04 23:29 | -29.28826 | 26.15419 | 7281 ft | 261 kts | 56° |
| 2026-05-04 23:30 | -29.28009 | 26.17269 | 7198 ft | 267 kts | 56° |
| 2026-05-04 23:30 | -29.27355 | 26.19359 | 7204 ft | 290 kts | 74° |
| 2026-05-04 23:30 | -29.27150 | 26.21697 | 7206 ft | 298 kts | 83° |
| 2026-05-04 23:30 | -29.27153 | 26.24087 | 7104 ft | 297 kts | 86° |
| 2026-05-04 23:31 | -29.27173 | 26.26380 | 7023 ft | 278 kts | 77° |
| 2026-05-04 23:31 | -29.26557 | 26.28370 | 6916 ft | 257 kts | 48° |
| 2026-05-04 23:31 | -29.25276 | 26.29687 | 6733 ft | 244 kts | 21° |
| 2026-05-04 23:31 | -29.23713 | 26.30153 | 6527 ft | 222 kts | 357° |
| 2026-05-04 23:32 | -29.22247 | 26.30151 | 6409 ft | 203 kts | 356° |
| 2026-05-04 23:32 | -29.20920 | 26.30160 | 6341 ft | 177 kts | 357° |
| 2026-05-04 23:32 | -29.19756 | 26.30172 | 6232 ft | 159 kts | 357° |
| 2026-05-04 23:32 | -29.18686 | 26.30183 | 6141 ft | 152 kts | 357° |
| 2026-05-04 23:33 | -29.17642 | 26.30190 | 5932 ft | 148 kts | 358° |
| 2026-05-04 23:33 | -29.16616 | 26.30197 | 5724 ft | 147 kts | 358° |
| 2026-05-04 23:33 | -29.15595 | 26.30204 | 5526 ft | 146 kts | 359° |
| 2026-05-04 23:33 | -29.14594 | 26.30209 | 5332 ft | 145 kts | 359° |
| 2026-05-04 23:34 | -29.13577 | 26.30220 | 5135 ft | 147 kts | 1° |
| 2026-05-04 23:34 | -29.12559 | 26.30236 | 4868 ft | 146 kts | 1° |
| 2026-05-04 23:34 | -29.11529 | 26.30225 | 4635 ft | 149 kts | 2° |
| 2026-05-04 23:34 | -29.10490 | 26.30230 | 4479 ft | 150 kts | 3° |
| 2026-05-04 23:35 | -29.09516 | 26.30244 | 4423 ft | 119 kts | 0° |
| 2026-05-04 23:35 | -29.08967 | 26.30244 | 4428 ft | 56 kts | 1° |
| 2026-05-04 23:35 | -29.08753 | 26.30262 | 4430 ft | 12 kts | 48° |
| 2026-05-04 23:35 | -29.08743 | 26.30364 | 4428 ft | 14 kts | 95° |
| 2026-05-04 23:36 | -29.08768 | 26.30424 | 4428 ft | 9 kts | 155° |
| 2026-05-04 23:36 | -29.08867 | 26.30428 | 4427 ft | 20 kts | 181° |
| 2026-05-04 23:36 | -29.09012 | 26.30428 | 4426 ft | 22 kts | 179° |
| 2026-05-04 23:36 | -29.09166 | 26.30429 | 4425 ft | 23 kts | 182° |
| 2026-05-04 23:37 | -29.09325 | 26.30428 | 4425 ft | 23 kts | 181° |
| 2026-05-04 23:37 | -29.09493 | 26.30426 | 4424 ft | 25 kts | 181° |
| 2026-05-04 23:37 | -29.09668 | 26.30425 | 4424 ft | 26 kts | 179° |
| 2026-05-04 23:37 | -29.09840 | 26.30425 | 4424 ft | 13 kts | 181° |
| 2026-05-04 23:38 | -29.09928 | 26.30449 | 4424 ft | 14 kts | 131° |
| 2026-05-04 23:38 | -29.09942 | 26.30563 | 4424 ft | 15 kts | 90° |
| 2026-05-04 23:38 | -29.09971 | 26.30598 | 4423 ft | 6 kts | 168° |
| 2026-05-04 23:38 | -29.09979 | 26.30596 | 4423 ft | 0 kts | 185° |
| 2026-05-04 23:39 | -29.10679 | 26.30507 | 4423 ft | 72 kts | 234° |
| 2026-05-04 23:39 | -29.10783 | 26.30521 | 4419 ft | 0 kts | 29° |